This is the latest recevied weather packets stored in our database for station/object KD0ISH. If no packets are shown the sender has not sent any weather packets the latest 1 day(s).
| Time | Temp. | Humidity | Pressure | Rain* | Wind** | Luminosity | Snow |
|---|---|---|---|---|---|---|---|
| 1778032268 | 7.78° C | 94% | 1013.6 hPa | 0 mm | - | 0 W/m² | - |
| 1778031966 | 7.78° C | 94% | 1013.2 hPa | 0 mm | - | 0 W/m² | - |
| 1778031661 | 7.78° C | 94% | 1013.4 hPa | 0 mm | - | 0 W/m² | - |
| 1778031359 | 7.78° C | 94% | 1013.4 hPa | 0 mm | - | 0 W/m² | - |
| 1778031056 | 7.78° C | 94% | 1013.4 hPa | 0 mm | - | 0 W/m² | - |
| 1778030752 | 7.78° C | 94% | 1013.4 hPa | 0 mm | - | 0 W/m² | - |
| 1778030449 | 7.78° C | 94% | 1013.3 hPa | 0 mm | - | 0 W/m² | - |
| 1778030147 | 7.78° C | 94% | 1013.3 hPa | 0 mm | - | 0 W/m² | - |
| 1778029842 | 7.78° C | 94% | 1013 hPa | 0 mm | - | 0 W/m² | - |
| 1778029537 | 7.78° C | 94% | 1013 hPa | 0 mm | - | 0 W/m² | - |
| 1778029233 | 7.78° C | 94% | 1013 hPa | 0 mm | - | 0 W/m² | - |
| 1778028930 | 7.78° C | 94% | 1013 hPa | 0 mm | - | 0 W/m² | - |
| 1778028626 | 7.78° C | 94% | 1012.9 hPa | 0 mm | - | 0 W/m² | - |
| 1778028020 | 7.78° C | 94% | 1012.6 hPa | 0 mm | - | 3 W/m² | - |
| 1778027716 | 7.78° C | 95% | 1012.8 hPa | 0 mm | - | 3 W/m² | - |
| 1778027412 | 7.78° C | 95% | 1012.3 hPa | 0 mm | - | 6 W/m² | - |
| 1778026501 | 7.78° C | 95% | 1012.5 hPa | 0 mm | - | 10 W/m² | - |
| 1778024079 | 8.33° C | 94% | 1012.5 hPa | 0 mm | - | 6 W/m² | - |
| 1778023171 | 8.33° C | 93% | 1012.4 hPa | 0 mm | - | 7 W/m² | - |
| 1778021960 | 8.33° C | 92% | 1012.1 hPa | 0 mm | - | 23 W/m² | - |
| 1778020747 | 8.33° C | 91% | 1012.1 hPa | 0 mm | - | 21 W/m² | - |
| 1778020444 | 8.33° C | 91% | 1012 hPa | 0 mm | - | 33 W/m² | - |
| 1778020140 | 8.33° C | 90% | 1012.2 hPa | 0 mm | - | 24 W/m² | - |
| 1778019533 | 8.33° C | 89% | 1011.9 hPa | 0 mm | - | 32 W/m² | - |
| 1778019230 | 8.33° C | 89% | 1012.3 hPa | 0 mm | - | 26 W/m² | - |
* Rain latest hour (hover to see other rain measurements)
** Current wind speed in m/s (hover to see current wind gust speed)